createdAt,value
2023-05-09T00:04:35.362Z,10.40
2023-05-09T00:09:39.633Z,10.60
2023-05-09T00:14:45.268Z,11.20
2023-05-09T00:19:48.040Z,10.40
2023-05-09T00:24:52.474Z,9.40
2023-05-09T00:29:55.372Z,9.80
2023-05-09T00:34:58.144Z,11.00
2023-05-09T00:40:02.338Z,9.20
2023-05-09T00:45:07.007Z,10.00
2023-05-09T00:50:10.960Z,9.20
2023-05-09T00:55:16.086Z,9.60
2023-05-09T01:00:19.658Z,9.80
2023-05-09T01:05:22.426Z,10.00
2023-05-09T01:10:32.170Z,9.20
2023-05-09T01:15:37.619Z,12.60
2023-05-09T01:20:45.509Z,9.00
2023-05-09T01:25:56.178Z,9.80
2023-05-09T01:31:00.416Z,10.20
2023-05-09T01:36:05.193Z,9.00
2023-05-09T01:41:08.705Z,9.80
2023-05-09T01:46:12.832Z,13.00
2023-05-09T01:51:15.601Z,8.60
2023-05-09T01:56:18.364Z,9.00
2023-05-09T02:01:22.680Z,12.00
2023-05-09T02:06:25.562Z,13.40
2023-05-09T02:11:28.316Z,8.60
2023-05-09T02:16:32.523Z,8.80
2023-05-09T02:21:35.424Z,6.80
2023-05-09T02:26:38.181Z,7.60
2023-05-09T02:31:42.651Z,9.20
2023-05-09T02:36:45.569Z,9.00
2023-05-09T02:41:51.150Z,7.20
2023-05-09T02:46:55.989Z,10.80
2023-05-09T02:51:58.694Z,8.40
2023-05-09T02:57:01.424Z,10.60
2023-05-09T03:02:06.430Z,9.40
2023-05-09T03:07:09.653Z,6.40
2023-05-09T03:12:12.578Z,6.00
2023-05-09T03:17:17.297Z,8.20
2023-05-09T03:22:20.628Z,11.80
2023-05-09T03:27:32.372Z,7.20
2023-05-09T03:32:37.153Z,8.00
2023-05-09T03:37:40.236Z,15.40
2023-05-09T03:42:44.039Z,8.60
2023-05-09T03:47:48.277Z,8.60
2023-05-09T03:52:51.542Z,7.40
2023-05-09T03:57:54.524Z,8.20
2023-05-09T04:02:59.398Z,8.80
2023-05-09T04:08:08.749Z,7.80
2023-05-09T04:13:11.778Z,8.00
2023-05-09T04:18:16.417Z,7.40
2023-05-09T04:23:20.376Z,8.20
2023-05-09T04:28:23.716Z,8.00
2023-05-09T04:33:29.068Z,6.00
2023-05-09T04:38:36.326Z,9.00
2023-05-09T04:43:43.375Z,6.80
2023-05-09T04:48:47.759Z,9.80
2023-05-09T04:53:50.806Z,6.80
2023-05-09T04:58:56.000Z,8.60
2023-05-09T05:04:00.306Z,5.80
2023-05-09T05:09:03.824Z,5.60
2023-05-09T05:14:06.998Z,7.00
2023-05-09T05:19:11.906Z,6.00
2023-05-09T05:24:16.763Z,8.40
2023-05-09T05:29:20.373Z,6.00
2023-05-09T05:34:24.601Z,8.00
2023-05-09T05:39:27.829Z,8.80
2023-05-09T05:44:30.937Z,8.20
2023-05-09T05:49:35.589Z,6.00
2023-05-09T05:54:39.248Z,7.60
2023-05-09T05:59:42.113Z,6.60
2023-05-09T06:04:46.730Z,6.00
2023-05-09T06:09:49.605Z,5.00
2023-05-09T06:14:52.744Z,9.40
2023-05-09T06:19:57.162Z,6.40
2023-05-09T06:25:00.014Z,8.00
2023-05-09T06:30:11.204Z,6.60
2023-05-09T06:35:22.213Z,9.20
2023-05-09T06:40:25.013Z,8.00
2023-05-09T06:45:28.171Z,9.00
2023-05-09T06:50:33.013Z,8.40
2023-05-09T06:55:36.104Z,8.00
2023-05-09T07:00:39.003Z,8.40
2023-05-09T07:05:43.697Z,11.00
2023-05-09T07:10:46.533Z,13.60
2023-05-09T07:15:49.540Z,14.20
2023-05-09T07:20:53.886Z,12.60
2023-05-09T07:25:59.507Z,13.00
2023-05-09T07:31:02.358Z,13.20
2023-05-09T07:36:06.941Z,13.00
2023-05-09T07:41:09.872Z,14.80
2023-05-09T07:46:12.985Z,14.40
2023-05-09T07:51:17.267Z,13.60
2023-05-09T07:56:20.039Z,12.60
2023-05-09T08:01:22.894Z,13.60
2023-05-09T08:06:27.342Z,11.80
2023-05-09T08:11:30.593Z,11.40
2023-05-09T08:16:33.443Z,15.20
2023-05-09T08:21:37.652Z,11.80
2023-05-09T08:26:40.673Z,14.60
2023-05-09T08:31:43.670Z,13.40
2023-05-09T08:36:48.337Z,10.60
2023-05-09T08:41:51.168Z,13.20
2023-05-09T08:46:54.120Z,11.00
2023-05-09T08:51:58.360Z,11.00
2023-05-09T08:57:01.290Z,12.80
2023-05-09T09:02:07.382Z,10.00
2023-05-09T09:07:11.896Z,12.00
2023-05-09T09:12:15.336Z,10.60
2023-05-09T09:17:20.612Z,9.20
2023-05-09T09:22:24.767Z,9.20
2023-05-09T09:27:27.903Z,14.40
2023-05-09T09:38:00.240Z,12.20
2023-05-09T09:43:03.374Z,12.60
2023-05-09T09:48:07.306Z,12.20
2023-05-09T09:53:11.572Z,12.00
2023-05-09T09:58:17.918Z,11.00
2023-05-09T10:03:20.926Z,12.00
2023-05-09T10:08:25.303Z,12.60
2023-05-09T10:13:28.292Z,11.20
2023-05-09T10:18:31.905Z,12.00
2023-05-09T10:23:38.651Z,13.60
2023-05-09T10:28:42.597Z,9.00
2023-05-09T10:33:48.014Z,12.00
2023-05-09T10:38:52.588Z,12.00
2023-05-09T10:43:57.070Z,11.00
2023-05-09T10:48:59.894Z,10.60
2023-05-09T10:54:04.123Z,12.20
2023-05-09T10:59:06.918Z,8.60
2023-05-09T11:04:11.141Z,11.80
2023-05-09T11:09:34.906Z,12.20
2023-05-09T11:14:42.534Z,12.00
2023-05-09T11:20:02.122Z,10.60
2023-05-09T11:25:07.368Z,9.60
2023-05-09T11:30:11.520Z,11.00
2023-05-09T11:35:15.617Z,13.80
2023-05-09T11:40:21.111Z,11.80
2023-05-09T11:45:24.937Z,11.60
2023-05-09T11:50:27.868Z,12.40
2023-05-09T11:55:32.738Z,12.80
2023-05-09T12:00:37.260Z,12.00
2023-05-09T12:05:40.169Z,10.20
2023-05-09T12:10:44.683Z,10.80
2023-05-09T12:15:47.620Z,10.40
2023-05-09T12:20:51.152Z,12.00
2023-05-09T12:25:55.997Z,13.40
2023-05-09T12:30:58.941Z,11.80
2023-05-09T12:36:03.950Z,9.20
2023-05-09T12:41:18.187Z,13.20
2023-05-09T12:46:25.576Z,9.00
2023-05-09T12:51:28.528Z,7.60
2023-05-09T12:56:36.576Z,9.00
2023-05-09T13:01:39.423Z,9.20
2023-05-09T13:06:49.019Z,159.25
2023-05-09T13:11:53.347Z,260.00
2023-05-09T13:16:56.261Z,259.00
2023-05-09T13:21:59.213Z,299.25
2023-05-09T13:27:03.640Z,325.00
2023-05-09T13:32:07.160Z,420.25
2023-05-09T13:37:10.048Z,272.00
2023-05-09T13:42:18.429Z,219.33
2023-05-09T13:47:22.292Z,195.00
2023-05-09T13:52:25.180Z,155.75
2023-05-09T13:57:29.560Z,157.00
2023-05-09T14:02:32.423Z,149.50
2023-05-09T14:07:35.327Z,112.00
2023-05-09T14:12:40.695Z,107.75
2023-05-09T14:17:43.905Z,107.50
2023-05-09T14:22:46.793Z,105.75
2023-05-09T14:27:51.449Z,94.75
2023-05-09T14:32:54.243Z,93.25
2023-05-09T14:37:56.990Z,82.25
2023-05-09T14:43:02.497Z,87.50
2023-05-09T14:48:05.662Z,89.75
2023-05-09T14:53:09.215Z,81.00
2023-05-09T14:58:14.377Z,79.75
2023-05-09T15:03:17.243Z,74.33
2023-05-09T15:08:20.064Z,72.33
2023-05-09T15:13:24.376Z,61.00
2023-05-09T15:18:28.687Z,64.00
2023-05-09T15:23:31.627Z,66.33
2023-05-09T15:28:36.121Z,60.75
2023-05-09T15:33:39.024Z,68.33
2023-05-09T15:38:42.181Z,61.25
2023-05-09T15:43:46.492Z,54.75
2023-05-09T15:48:49.271Z,55.00
2023-05-09T15:53:52.379Z,56.50
2023-05-09T15:58:56.659Z,55.75
2023-05-09T16:04:00.147Z,48.75
2023-05-09T16:09:04.433Z,49.75
2023-05-09T16:14:11.266Z,33.20
2023-05-09T16:19:14.305Z,38.75
2023-05-09T16:24:17.401Z,44.25
2023-05-09T16:29:22.330Z,45.00
2023-05-09T16:34:25.159Z,42.00
2023-05-09T16:39:28.262Z,39.00
2023-05-09T16:44:32.421Z,43.25
2023-05-09T16:49:35.283Z,41.25
2023-05-09T16:54:38.094Z,41.75
2023-05-09T16:59:42.326Z,41.25
2023-05-09T17:04:45.400Z,31.50
2023-05-09T17:09:49.502Z,38.00
2023-05-09T17:14:53.871Z,28.80
2023-05-09T17:19:57.572Z,29.20
2023-05-09T17:25:00.431Z,26.60
2023-05-09T17:30:05.579Z,27.80
2023-05-09T17:35:09.258Z,20.80
2023-05-09T17:40:12.544Z,21.80
2023-05-09T17:45:16.929Z,22.80
2023-05-09T17:50:20.761Z,21.40
2023-05-09T17:55:23.622Z,21.20
2023-05-09T18:00:27.787Z,19.00
2023-05-09T18:05:30.654Z,19.00
2023-05-09T18:10:33.396Z,15.40
2023-05-09T18:15:38.475Z,18.20
2023-05-09T18:20:41.431Z,16.20
2023-05-09T18:25:44.388Z,15.20
2023-05-09T18:30:49.045Z,15.00
2023-05-09T18:35:52.074Z,15.80
2023-05-09T18:40:54.899Z,15.40
2023-05-09T18:45:59.058Z,16.20
2023-05-09T18:51:01.930Z,14.20
2023-05-09T18:56:05.735Z,13.80
2023-05-09T19:01:11.741Z,17.00
2023-05-09T19:06:15.274Z,15.40
2023-05-09T19:11:18.066Z,15.60
2023-05-09T19:16:22.486Z,15.20
2023-05-09T19:21:25.548Z,14.80
2023-05-09T19:26:28.303Z,14.20
2023-05-09T19:31:32.680Z,15.40
2023-05-09T19:36:35.504Z,15.40
2023-05-09T19:41:38.437Z,13.20
2023-05-09T19:46:43.867Z,13.80
2023-05-09T19:51:46.785Z,16.00
2023-05-09T19:56:49.589Z,14.60
2023-05-09T20:01:53.835Z,15.60
2023-05-09T20:06:56.634Z,16.00
2023-05-09T20:11:59.847Z,13.80
2023-05-09T20:17:05.152Z,12.80
2023-05-09T20:22:08.784Z,11.80
2023-05-09T20:27:11.855Z,14.40
2023-05-09T20:32:16.134Z,13.80
2023-05-09T20:37:18.932Z,12.60
2023-05-09T20:42:23.234Z,13.00
2023-05-09T20:47:27.504Z,13.00
2023-05-09T20:52:30.257Z,11.80
2023-05-09T20:57:33.299Z,11.00
2023-05-09T21:02:37.612Z,11.00
2023-05-09T21:07:40.681Z,13.20
2023-05-09T21:12:43.664Z,10.00
2023-05-09T21:17:47.886Z,14.60
2023-05-09T21:22:50.795Z,12.60
2023-05-09T21:27:53.695Z,13.00
2023-05-09T21:32:57.864Z,10.60
2023-05-09T21:38:00.687Z,12.00
2023-05-09T21:43:03.721Z,11.00
2023-05-09T21:48:08.080Z,12.40
2023-05-09T21:53:11.023Z,11.60
2023-05-09T21:58:14.147Z,12.00
2023-05-09T22:03:18.423Z,10.80
2023-05-09T22:08:21.257Z,11.20
2023-05-09T22:13:24.151Z,9.80
2023-05-09T22:18:28.413Z,9.80
2023-05-09T22:23:31.191Z,7.60
2023-05-09T22:28:34.041Z,10.60
2023-05-09T22:33:38.230Z,8.60
2023-05-09T22:38:40.991Z,12.00
2023-05-09T22:43:43.828Z,10.40
2023-05-09T22:48:47.944Z,10.20
2023-05-09T22:53:50.691Z,8.00
2023-05-09T22:58:53.549Z,10.80
2023-05-09T23:03:57.664Z,9.60
2023-05-09T23:09:00.444Z,8.80
2023-05-09T23:14:03.383Z,7.80
2023-05-09T23:19:07.492Z,8.00
2023-05-09T23:24:10.260Z,10.00
2023-05-09T23:29:13.055Z,7.80
2023-05-09T23:34:17.450Z,8.00
2023-05-09T23:39:20.201Z,7.00
2023-05-09T23:44:22.936Z,7.00
2023-05-09T23:49:27.182Z,7.40
2023-05-09T23:54:29.936Z,7.20
2023-05-09T23:59:32.917Z,8.60
